sensor_id;sensor_type;location;lat;lon;timestamp;P1;durP1;ratioP1;P2;durP2;ratioP2
9218;SDS011;4644;48.858;9.184;2023-04-25T00:00:48;2.55;;;2.35;;
9218;SDS011;4644;48.858;9.184;2023-04-25T00:03:17;3.10;;;2.30;;
9218;SDS011;4644;48.858;9.184;2023-04-25T00:05:44;3.42;;;2.40;;
9218;SDS011;4644;48.858;9.184;2023-04-25T00:08:11;3.55;;;2.50;;
9218;SDS011;4644;48.858;9.184;2023-04-25T00:10:38;3.38;;;2.30;;
9218;SDS011;4644;48.858;9.184;2023-04-25T00:13:06;3.80;;;2.30;;
9218;SDS011;4644;48.858;9.184;2023-04-25T00:15:34;3.05;;;2.40;;
9218;SDS011;4644;48.858;9.184;2023-04-25T00:18:03;2.60;;;2.40;;
9218;SDS011;4644;48.858;9.184;2023-04-25T00:20:30;2.50;;;2.05;;
9218;SDS011;4644;48.858;9.184;2023-04-25T00:22:57;4.00;;;2.17;;
9218;SDS011;4644;48.858;9.184;2023-04-25T00:25:24;2.33;;;2.13;;
9218;SDS011;4644;48.858;9.184;2023-04-25T00:27:51;2.38;;;2.17;;
9218;SDS011;4644;48.858;9.184;2023-04-25T00:30:20;3.40;;;2.30;;
9218;SDS011;4644;48.858;9.184;2023-04-25T00:32:48;2.35;;;1.95;;
9218;SDS011;4644;48.858;9.184;2023-04-25T00:35:15;2.67;;;2.20;;
9218;SDS011;4644;48.858;9.184;2023-04-25T00:37:42;2.07;;;1.90;;
9218;SDS011;4644;48.858;9.184;2023-04-25T00:40:10;2.03;;;1.80;;
9218;SDS011;4644;48.858;9.184;2023-04-25T00:42:37;3.63;;;1.92;;
9218;SDS011;4644;48.858;9.184;2023-04-25T00:45:05;2.00;;;1.90;;
9218;SDS011;4644;48.858;9.184;2023-04-25T00:47:34;2.67;;;1.90;;
9218;SDS011;4644;48.858;9.184;2023-04-25T00:50:02;2.85;;;2.00;;
9218;SDS011;4644;48.858;9.184;2023-04-25T00:52:29;2.15;;;1.95;;
9218;SDS011;4644;48.858;9.184;2023-04-25T00:54:56;1.98;;;1.80;;
9218;SDS011;4644;48.858;9.184;2023-04-25T00:57:23;1.80;;;1.70;;
9218;SDS011;4644;48.858;9.184;2023-04-25T00:59:51;3.05;;;1.90;;
9218;SDS011;4644;48.858;9.184;2023-04-25T01:02:19;3.75;;;1.85;;
9218;SDS011;4644;48.858;9.184;2023-04-25T01:04:48;3.40;;;2.08;;
9218;SDS011;4644;48.858;9.184;2023-04-25T01:07:15;2.23;;;1.70;;
9218;SDS011;4644;48.858;9.184;2023-04-25T01:09:42;3.25;;;1.73;;
9218;SDS011;4644;48.858;9.184;2023-04-25T01:12:09;3.13;;;1.95;;
9218;SDS011;4644;48.858;9.184;2023-04-25T01:14:36;1.70;;;1.60;;
9218;SDS011;4644;48.858;9.184;2023-04-25T01:17:03;1.98;;;1.88;;
9218;SDS011;4644;48.858;9.184;2023-04-25T01:19:30;1.85;;;1.73;;
9218;SDS011;4644;48.858;9.184;2023-04-25T01:21:58;2.20;;;1.80;;
9218;SDS011;4644;48.858;9.184;2023-04-25T01:24:26;2.17;;;1.80;;
9218;SDS011;4644;48.858;9.184;2023-04-25T01:26:53;2.30;;;2.03;;
9218;SDS011;4644;48.858;9.184;2023-04-25T01:29:21;2.45;;;1.85;;
9218;SDS011;4644;48.858;9.184;2023-04-25T01:31:49;3.03;;;2.30;;
9218;SDS011;4644;48.858;9.184;2023-04-25T01:34:18;2.15;;;1.95;;
9218;SDS011;4644;48.858;9.184;2023-04-25T01:36:45;2.90;;;2.08;;
9218;SDS011;4644;48.858;9.184;2023-04-25T01:39:16;3.05;;;2.10;;
9218;SDS011;4644;48.858;9.184;2023-04-25T01:41:43;2.88;;;1.90;;
9218;SDS011;4644;48.858;9.184;2023-04-25T01:44:11;2.60;;;1.92;;
9218;SDS011;4644;48.858;9.184;2023-04-25T01:46:38;2.30;;;2.10;;
9218;SDS011;4644;48.858;9.184;2023-04-25T01:49:05;2.83;;;2.10;;
9218;SDS011;4644;48.858;9.184;2023-04-25T01:51:32;3.65;;;2.35;;
9218;SDS011;4644;48.858;9.184;2023-04-25T01:54:00;2.22;;;2.03;;
9218;SDS011;4644;48.858;9.184;2023-04-25T01:56:31;2.63;;;2.00;;
9218;SDS011;4644;48.858;9.184;2023-04-25T01:58:58;2.78;;;2.10;;
9218;SDS011;4644;48.858;9.184;2023-04-25T02:01:25;3.85;;;2.13;;
9218;SDS011;4644;48.858;9.184;2023-04-25T02:03:52;2.28;;;2.08;;
9218;SDS011;4644;48.858;9.184;2023-04-25T02:06:19;2.35;;;2.15;;
9218;SDS011;4644;48.858;9.184;2023-04-25T02:08:46;2.67;;;2.37;;
9218;SDS011;4644;48.858;9.184;2023-04-25T02:11:13;3.20;;;2.30;;
9218;SDS011;4644;48.858;9.184;2023-04-25T02:13:42;3.63;;;2.47;;
9218;SDS011;4644;48.858;9.184;2023-04-25T02:16:09;2.50;;;2.30;;
9218;SDS011;4644;48.858;9.184;2023-04-25T02:18:36;4.03;;;2.60;;
9218;SDS011;4644;48.858;9.184;2023-04-25T02:21:04;3.30;;;2.75;;
9218;SDS011;4644;48.858;9.184;2023-04-25T02:23:31;3.20;;;2.90;;
9218;SDS011;4644;48.858;9.184;2023-04-25T02:25:58;4.20;;;2.97;;
9218;SDS011;4644;48.858;9.184;2023-04-25T02:28:25;3.38;;;2.83;;
9218;SDS011;4644;48.858;9.184;2023-04-25T02:30:53;3.30;;;3.00;;
9218;SDS011;4644;48.858;9.184;2023-04-25T02:33:20;4.63;;;3.13;;
9218;SDS011;4644;48.858;9.184;2023-04-25T02:35:47;3.33;;;2.88;;
9218;SDS011;4644;48.858;9.184;2023-04-25T02:38:14;4.50;;;2.80;;
9218;SDS011;4644;48.858;9.184;2023-04-25T02:40:41;3.58;;;2.50;;
9218;SDS011;4644;48.858;9.184;2023-04-25T02:43:08;3.00;;;2.65;;
9218;SDS011;4644;48.858;9.184;2023-04-25T02:45:34;4.10;;;2.80;;
9218;SDS011;4644;48.858;9.184;2023-04-25T02:48:04;3.60;;;2.63;;
9218;SDS011;4644;48.858;9.184;2023-04-25T02:50:31;3.42;;;2.75;;
9218;SDS011;4644;48.858;9.184;2023-04-25T02:52:58;3.88;;;2.80;;
9218;SDS011;4644;48.858;9.184;2023-04-25T02:55:25;3.22;;;2.80;;
9218;SDS011;4644;48.858;9.184;2023-04-25T02:57:52;3.00;;;2.70;;
9218;SDS011;4644;48.858;9.184;2023-04-25T03:00:20;3.38;;;2.60;;
9218;SDS011;4644;48.858;9.184;2023-04-25T03:02:47;3.60;;;3.00;;
9218;SDS011;4644;48.858;9.184;2023-04-25T03:05:16;3.33;;;3.03;;
9218;SDS011;4644;48.858;9.184;2023-04-25T03:07:43;4.85;;;2.80;;
9218;SDS011;4644;48.858;9.184;2023-04-25T03:10:10;4.40;;;3.15;;
9218;SDS011;4644;48.858;9.184;2023-04-25T03:12:37;5.78;;;3.38;;
9218;SDS011;4644;48.858;9.184;2023-04-25T03:15:05;3.40;;;2.80;;
9218;SDS011;4644;48.858;9.184;2023-04-25T03:17:32;3.55;;;2.85;;
9218;SDS011;4644;48.858;9.184;2023-04-25T03:19:59;4.20;;;3.00;;
9218;SDS011;4644;48.858;9.184;2023-04-25T03:22:27;4.00;;;2.90;;
9218;SDS011;4644;48.858;9.184;2023-04-25T03:24:54;3.60;;;3.20;;
9218;SDS011;4644;48.858;9.184;2023-04-25T03:27:21;3.53;;;2.75;;
9218;SDS011;4644;48.858;9.184;2023-04-25T03:29:48;3.50;;;3.05;;
9218;SDS011;4644;48.858;9.184;2023-04-25T03:32:15;4.68;;;2.95;;
9218;SDS011;4644;48.858;9.184;2023-04-25T03:34:42;4.32;;;3.22;;
9218;SDS011;4644;48.858;9.184;2023-04-25T03:37:09;3.30;;;2.80;;
9218;SDS011;4644;48.858;9.184;2023-04-25T03:39:37;3.20;;;2.80;;
9218;SDS011;4644;48.858;9.184;2023-04-25T03:42:04;4.88;;;2.85;;
9218;SDS011;4644;48.858;9.184;2023-04-25T03:44:31;4.23;;;3.10;;
9218;SDS011;4644;48.858;9.184;2023-04-25T03:46:58;4.72;;;2.80;;
9218;SDS011;4644;48.858;9.184;2023-04-25T03:49:25;4.30;;;2.90;;
9218;SDS011;4644;48.858;9.184;2023-04-25T03:51:52;5.55;;;2.90;;
9218;SDS011;4644;48.858;9.184;2023-04-25T03:54:19;3.50;;;3.20;;
9218;SDS011;4644;48.858;9.184;2023-04-25T03:56:47;3.58;;;3.10;;
9218;SDS011;4644;48.858;9.184;2023-04-25T03:59:14;4.75;;;3.03;;
9218;SDS011;4644;48.858;9.184;2023-04-25T04:01:41;5.35;;;3.50;;
9218;SDS011;4644;48.858;9.184;2023-04-25T04:04:08;3.58;;;3.28;;
9218;SDS011;4644;48.858;9.184;2023-04-25T04:06:35;3.83;;;3.53;;
9218;SDS011;4644;48.858;9.184;2023-04-25T04:09:03;4.85;;;3.58;;
9218;SDS011;4644;48.858;9.184;2023-04-25T04:11:31;6.05;;;4.00;;
9218;SDS011;4644;48.858;9.184;2023-04-25T04:13:59;5.05;;;4.03;;
9218;SDS011;4644;48.858;9.184;2023-04-25T04:16:26;4.43;;;4.00;;
9218;SDS011;4644;48.858;9.184;2023-04-25T04:18:53;4.55;;;3.97;;
9218;SDS011;4644;48.858;9.184;2023-04-25T04:21:20;6.15;;;3.90;;
9218;SDS011;4644;48.858;9.184;2023-04-25T04:23:47;4.97;;;4.50;;
9218;SDS011;4644;48.858;9.184;2023-04-25T04:26:14;4.93;;;4.35;;
9218;SDS011;4644;48.858;9.184;2023-04-25T04:28:41;4.50;;;3.93;;
9218;SDS011;4644;48.858;9.184;2023-04-25T04:31:10;4.40;;;4.00;;
9218;SDS011;4644;48.858;9.184;2023-04-25T04:33:37;4.22;;;3.92;;
9218;SDS011;4644;48.858;9.184;2023-04-25T04:36:05;4.50;;;4.03;;
9218;SDS011;4644;48.858;9.184;2023-04-25T04:38:32;4.60;;;4.10;;
9218;SDS011;4644;48.858;9.184;2023-04-25T04:40:59;4.20;;;3.80;;
9218;SDS011;4644;48.858;9.184;2023-04-25T04:43:27;4.05;;;3.75;;
9218;SDS011;4644;48.858;9.184;2023-04-25T04:45:54;3.90;;;3.50;;
9218;SDS011;4644;48.858;9.184;2023-04-25T04:48:24;4.97;;;4.03;;
9218;SDS011;4644;48.858;9.184;2023-04-25T04:50:51;6.00;;;3.88;;
9218;SDS011;4644;48.858;9.184;2023-04-25T04:53:18;4.68;;;3.47;;
9218;SDS011;4644;48.858;9.184;2023-04-25T04:55:45;4.43;;;3.50;;
9218;SDS011;4644;48.858;9.184;2023-04-25T04:58:12;4.07;;;3.70;;
9218;SDS011;4644;48.858;9.184;2023-04-25T05:00:39;3.87;;;3.57;;
9218;SDS011;4644;48.858;9.184;2023-04-25T05:03:06;4.35;;;3.65;;
9218;SDS011;4644;48.858;9.184;2023-04-25T05:05:34;4.80;;;3.92;;
9218;SDS011;4644;48.858;9.184;2023-04-25T05:08:04;3.88;;;3.47;;
9218;SDS011;4644;48.858;9.184;2023-04-25T05:10:32;5.30;;;3.70;;
9218;SDS011;4644;48.858;9.184;2023-04-25T05:12:59;4.05;;;3.65;;
9218;SDS011;4644;48.858;9.184;2023-04-25T05:15:26;4.40;;;4.00;;
9218;SDS011;4644;48.858;9.184;2023-04-25T05:17:53;5.07;;;4.03;;
9218;SDS011;4644;48.858;9.184;2023-04-25T05:20:20;3.97;;;3.47;;
9218;SDS011;4644;48.858;9.184;2023-04-25T05:22:49;4.07;;;3.67;;
9218;SDS011;4644;48.858;9.184;2023-04-25T05:25:16;5.33;;;4.27;;
9218;SDS011;4644;48.858;9.184;2023-04-25T05:27:43;5.68;;;4.38;;
9218;SDS011;4644;48.858;9.184;2023-04-25T05:30:10;4.45;;;3.92;;
9218;SDS011;4644;48.858;9.184;2023-04-25T05:32:37;4.38;;;3.97;;
9218;SDS011;4644;48.858;9.184;2023-04-25T05:35:04;4.50;;;4.10;;
9218;SDS011;4644;48.858;9.184;2023-04-25T05:37:31;4.63;;;4.10;;
9218;SDS011;4644;48.858;9.184;2023-04-25T05:40:00;5.63;;;4.65;;
9218;SDS011;4644;48.858;9.184;2023-04-25T05:42:31;5.72;;;4.30;;
9218;SDS011;4644;48.858;9.184;2023-04-25T05:44:58;6.75;;;4.65;;
9218;SDS011;4644;48.858;9.184;2023-04-25T05:47:25;5.97;;;4.43;;
9218;SDS011;4644;48.858;9.184;2023-04-25T05:49:52;4.93;;;4.43;;
9218;SDS011;4644;48.858;9.184;2023-04-25T05:52:19;6.28;;;4.55;;
9218;SDS011;4644;48.858;9.184;2023-04-25T05:54:46;4.83;;;4.33;;
9218;SDS011;4644;48.858;9.184;2023-04-25T05:57:20;5.65;;;4.38;;
9218;SDS011;4644;48.858;9.184;2023-04-25T05:59:48;5.07;;;4.18;;
9218;SDS011;4644;48.858;9.184;2023-04-25T06:02:14;38.53;;;9.15;;
9218;SDS011;4644;48.858;9.184;2023-04-25T06:04:41;12.88;;;5.68;;
9218;SDS011;4644;48.858;9.184;2023-04-25T06:07:08;5.80;;;4.33;;
9218;SDS011;4644;48.858;9.184;2023-04-25T06:09:35;10.10;;;4.57;;
9218;SDS011;4644;48.858;9.184;2023-04-25T06:12:04;8.85;;;4.28;;
9218;SDS011;4644;48.858;9.184;2023-04-25T06:14:32;4.57;;;4.15;;
9218;SDS011;4644;48.858;9.184;2023-04-25T06:16:59;4.65;;;3.80;;
9218;SDS011;4644;48.858;9.184;2023-04-25T06:19:31;7.90;;;4.20;;
9218;SDS011;4644;48.858;9.184;2023-04-25T06:21:58;5.35;;;3.80;;
9218;SDS011;4644;48.858;9.184;2023-04-25T06:24:25;6.45;;;3.70;;
9218;SDS011;4644;48.858;9.184;2023-04-25T06:26:52;4.18;;;3.53;;
9218;SDS011;4644;48.858;9.184;2023-04-25T06:29:19;5.50;;;3.77;;
9218;SDS011;4644;48.858;9.184;2023-04-25T06:31:47;16.75;;;5.03;;
9218;SDS011;4644;48.858;9.184;2023-04-25T06:34:14;67.10;;;10.82;;
9218;SDS011;4644;48.858;9.184;2023-04-25T06:36:42;4.13;;;3.50;;
9218;SDS011;4644;48.858;9.184;2023-04-25T06:39:09;3.70;;;3.30;;
9218;SDS011;4644;48.858;9.184;2023-04-25T06:41:36;11.35;;;4.40;;
9218;SDS011;4644;48.858;9.184;2023-04-25T06:44:03;18.85;;;5.03;;
9218;SDS011;4644;48.858;9.184;2023-04-25T06:46:31;20.52;;;5.15;;
9218;SDS011;4644;48.858;9.184;2023-04-25T06:48:59;6.18;;;3.78;;
9218;SDS011;4644;48.858;9.184;2023-04-25T06:51:26;4.80;;;3.75;;
9218;SDS011;4644;48.858;9.184;2023-04-25T06:53:55;8.13;;;4.00;;
9218;SDS011;4644;48.858;9.184;2023-04-25T06:56:21;11.90;;;4.78;;
9218;SDS011;4644;48.858;9.184;2023-04-25T06:58:49;8.82;;;4.10;;
9218;SDS011;4644;48.858;9.184;2023-04-25T07:01:16;4.25;;;3.83;;
9218;SDS011;4644;48.858;9.184;2023-04-25T07:03:43;4.47;;;3.58;;
9218;SDS011;4644;48.858;9.184;2023-04-25T07:06:11;4.50;;;3.80;;
9218;SDS011;4644;48.858;9.184;2023-04-25T07:08:38;5.40;;;4.10;;
9218;SDS011;4644;48.858;9.184;2023-04-25T07:11:05;4.22;;;3.83;;
9218;SDS011;4644;48.858;9.184;2023-04-25T07:13:32;4.88;;;4.05;;
9218;SDS011;4644;48.858;9.184;2023-04-25T07:15:59;5.13;;;4.20;;
9218;SDS011;4644;48.858;9.184;2023-04-25T07:18:26;42.13;;;8.13;;
9218;SDS011;4644;48.858;9.184;2023-04-25T07:20:53;6.55;;;4.53;;
9218;SDS011;4644;48.858;9.184;2023-04-25T07:23:21;12.43;;;4.93;;
9218;SDS011;4644;48.858;9.184;2023-04-25T07:25:48;5.25;;;4.50;;
9218;SDS011;4644;48.858;9.184;2023-04-25T07:28:15;12.23;;;4.63;;
9218;SDS011;4644;48.858;9.184;2023-04-25T07:30:42;8.10;;;4.88;;
9218;SDS011;4644;48.858;9.184;2023-04-25T07:33:09;7.75;;;4.60;;
9218;SDS011;4644;48.858;9.184;2023-04-25T07:35:36;11.32;;;5.00;;
9218;SDS011;4644;48.858;9.184;2023-04-25T07:38:03;11.77;;;5.35;;
9218;SDS011;4644;48.858;9.184;2023-04-25T07:40:33;6.15;;;4.68;;
9218;SDS011;4644;48.858;9.184;2023-04-25T07:43:00;5.30;;;4.80;;
9218;SDS011;4644;48.858;9.184;2023-04-25T07:45:27;38.83;;;8.30;;
9218;SDS011;4644;48.858;9.184;2023-04-25T07:47:54;16.63;;;6.00;;
9218;SDS011;4644;48.858;9.184;2023-04-25T07:50:21;8.60;;;4.82;;
9218;SDS011;4644;48.858;9.184;2023-04-25T07:52:48;11.43;;;5.43;;
9218;SDS011;4644;48.858;9.184;2023-04-25T07:55:15;7.30;;;4.97;;
9218;SDS011;4644;48.858;9.184;2023-04-25T07:57:43;6.97;;;5.25;;
9218;SDS011;4644;48.858;9.184;2023-04-25T08:00:11;6.63;;;5.25;;
9218;SDS011;4644;48.858;9.184;2023-04-25T08:02:40;5.63;;;4.68;;
9218;SDS011;4644;48.858;9.184;2023-04-25T08:05:07;5.15;;;4.63;;
9218;SDS011;4644;48.858;9.184;2023-04-25T08:07:36;10.93;;;5.38;;
9218;SDS011;4644;48.858;9.184;2023-04-25T08:10:04;38.13;;;7.22;;
9218;SDS011;4644;48.858;9.184;2023-04-25T08:12:31;24.10;;;6.78;;
9218;SDS011;4644;48.858;9.184;2023-04-25T08:15:00;7.93;;;6.15;;
9218;SDS011;4644;48.858;9.184;2023-04-25T08:17:27;11.10;;;5.78;;
9218;SDS011;4644;48.858;9.184;2023-04-25T08:19:54;11.23;;;6.60;;
9218;SDS011;4644;48.858;9.184;2023-04-25T08:22:22;7.40;;;4.90;;
9218;SDS011;4644;48.858;9.184;2023-04-25T08:24:48;6.10;;;4.93;;
9218;SDS011;4644;48.858;9.184;2023-04-25T08:27:16;5.13;;;4.63;;
9218;SDS011;4644;48.858;9.184;2023-04-25T08:29:45;9.77;;;5.72;;
9218;SDS011;4644;48.858;9.184;2023-04-25T08:32:14;8.10;;;4.83;;
9218;SDS011;4644;48.858;9.184;2023-04-25T08:34:41;6.10;;;4.72;;
9218;SDS011;4644;48.858;9.184;2023-04-25T08:37:09;6.75;;;5.30;;
9218;SDS011;4644;48.858;9.184;2023-04-25T08:39:36;6.32;;;5.45;;
9218;SDS011;4644;48.858;9.184;2023-04-25T08:42:05;7.13;;;6.43;;
9218;SDS011;4644;48.858;9.184;2023-04-25T08:44:33;6.70;;;6.00;;
9218;SDS011;4644;48.858;9.184;2023-04-25T08:47:01;6.57;;;5.75;;
9218;SDS011;4644;48.858;9.184;2023-04-25T08:49:32;6.30;;;5.70;;
9218;SDS011;4644;48.858;9.184;2023-04-25T08:51:59;6.90;;;6.20;;
9218;SDS011;4644;48.858;9.184;2023-04-25T08:54:27;6.85;;;6.22;;
9218;SDS011;4644;48.858;9.184;2023-04-25T08:56:56;7.05;;;5.90;;
9218;SDS011;4644;48.858;9.184;2023-04-25T08:59:23;6.88;;;6.18;;
9218;SDS011;4644;48.858;9.184;2023-04-25T09:01:51;6.20;;;5.38;;
9218;SDS011;4644;48.858;9.184;2023-04-25T09:04:18;8.43;;;6.20;;
9218;SDS011;4644;48.858;9.184;2023-04-25T09:06:46;8.63;;;6.82;;
9218;SDS011;4644;48.858;9.184;2023-04-25T09:09:13;12.82;;;8.63;;
9218;SDS011;4644;48.858;9.184;2023-04-25T09:11:40;10.10;;;9.10;;
9218;SDS011;4644;48.858;9.184;2023-04-25T09:14:11;9.50;;;8.10;;
9218;SDS011;4644;48.858;9.184;2023-04-25T09:16:58;33.13;;;9.65;;
9218;SDS011;4644;48.858;9.184;2023-04-25T09:19:30;19.70;;;7.80;;
9218;SDS011;4644;48.858;9.184;2023-04-25T09:22:02;21.23;;;8.13;;
9218;SDS011;4644;48.858;9.184;2023-04-25T09:24:30;33.58;;;10.23;;
9218;SDS011;4644;48.858;9.184;2023-04-25T09:26:58;48.67;;;12.65;;
9218;SDS011;4644;48.858;9.184;2023-04-25T09:29:30;61.58;;;13.27;;
9218;SDS011;4644;48.858;9.184;2023-04-25T09:32:10;30.98;;;12.15;;
9218;SDS011;4644;48.858;9.184;2023-04-25T09:34:38;13.43;;;9.45;;
9218;SDS011;4644;48.858;9.184;2023-04-25T09:37:08;7.57;;;6.50;;
9218;SDS011;4644;48.858;9.184;2023-04-25T09:39:36;7.60;;;6.40;;
9218;SDS011;4644;48.858;9.184;2023-04-25T09:42:03;8.13;;;7.33;;
9218;SDS011;4644;48.858;9.184;2023-04-25T09:44:30;8.48;;;7.63;;
9218;SDS011;4644;48.858;9.184;2023-04-25T09:46:57;11.65;;;9.40;;
9218;SDS011;4644;48.858;9.184;2023-04-25T09:49:24;9.93;;;7.88;;
9218;SDS011;4644;48.858;9.184;2023-04-25T09:51:55;9.40;;;8.40;;
9218;SDS011;4644;48.858;9.184;2023-04-25T09:54:24;8.32;;;7.45;;
9218;SDS011;4644;48.858;9.184;2023-04-25T09:56:52;8.40;;;7.60;;
9218;SDS011;4644;48.858;9.184;2023-04-25T09:59:20;9.63;;;8.65;;
9218;SDS011;4644;48.858;9.184;2023-04-25T10:01:48;10.88;;;9.68;;
9218;SDS011;4644;48.858;9.184;2023-04-25T10:04:18;11.63;;;10.43;;
9218;SDS011;4644;48.858;9.184;2023-04-25T10:06:48;14.02;;;11.18;;
9218;SDS011;4644;48.858;9.184;2023-04-25T10:09:17;14.27;;;11.00;;
9218;SDS011;4644;48.858;9.184;2023-04-25T10:11:48;11.38;;;9.45;;
9218;SDS011;4644;48.858;9.184;2023-04-25T10:14:16;10.82;;;9.23;;
9218;SDS011;4644;48.858;9.184;2023-04-25T10:16:44;8.80;;;7.90;;
9218;SDS011;4644;48.858;9.184;2023-04-25T10:19:12;10.65;;;7.80;;
9218;SDS011;4644;48.858;9.184;2023-04-25T10:21:41;9.50;;;8.43;;
9218;SDS011;4644;48.858;9.184;2023-04-25T10:24:14;10.93;;;8.57;;
9218;SDS011;4644;48.858;9.184;2023-04-25T10:26:41;12.00;;;9.55;;
9218;SDS011;4644;48.858;9.184;2023-04-25T10:29:10;10.60;;;9.13;;
9218;SDS011;4644;48.858;9.184;2023-04-25T10:31:44;11.07;;;9.40;;
9218;SDS011;4644;48.858;9.184;2023-04-25T10:34:13;14.32;;;9.45;;
9218;SDS011;4644;48.858;9.184;2023-04-25T10:36:41;14.02;;;8.73;;
9218;SDS011;4644;48.858;9.184;2023-04-25T10:39:08;19.90;;;8.47;;
9218;SDS011;4644;48.858;9.184;2023-04-25T10:41:48;9.30;;;7.72;;
9218;SDS011;4644;48.858;9.184;2023-04-25T10:44:21;9.52;;;7.93;;
9218;SDS011;4644;48.858;9.184;2023-04-25T10:46:48;10.07;;;8.13;;
9218;SDS011;4644;48.858;9.184;2023-04-25T10:49:31;12.88;;;8.40;;
9218;SDS011;4644;48.858;9.184;2023-04-25T10:52:11;13.88;;;8.75;;
9218;SDS011;4644;48.858;9.184;2023-04-25T10:54:48;11.82;;;8.50;;
9218;SDS011;4644;48.858;9.184;2023-04-25T10:57:31;11.82;;;8.30;;
9218;SDS011;4644;48.858;9.184;2023-04-25T11:00:08;17.25;;;9.15;;
9218;SDS011;4644;48.858;9.184;2023-04-25T11:02:40;9.63;;;8.18;;
9218;SDS011;4644;48.858;9.184;2023-04-25T11:05:10;15.02;;;9.25;;
9218;SDS011;4644;48.858;9.184;2023-04-25T11:07:44;12.05;;;8.75;;
9218;SDS011;4644;48.858;9.184;2023-04-25T11:10:16;11.45;;;9.13;;
9218;SDS011;4644;48.858;9.184;2023-04-25T11:12:44;11.75;;;8.40;;
9218;SDS011;4644;48.858;9.184;2023-04-25T11:15:13;9.40;;;7.28;;
9218;SDS011;4644;48.858;9.184;2023-04-25T11:17:40;9.52;;;7.00;;
9218;SDS011;4644;48.858;9.184;2023-04-25T11:20:08;10.15;;;6.95;;
9218;SDS011;4644;48.858;9.184;2023-04-25T11:22:39;7.63;;;6.93;;
9218;SDS011;4644;48.858;9.184;2023-04-25T11:25:07;7.40;;;6.60;;
9218;SDS011;4644;48.858;9.184;2023-04-25T11:27:37;7.07;;;6.30;;
9218;SDS011;4644;48.858;9.184;2023-04-25T11:30:14;7.38;;;6.53;;
9218;SDS011;4644;48.858;9.184;2023-04-25T11:32:42;9.10;;;6.75;;
9218;SDS011;4644;48.858;9.184;2023-04-25T11:35:09;8.32;;;7.20;;
9218;SDS011;4644;48.858;9.184;2023-04-25T11:37:37;7.85;;;6.53;;
9218;SDS011;4644;48.858;9.184;2023-04-25T11:40:06;8.68;;;6.10;;
9218;SDS011;4644;48.858;9.184;2023-04-25T11:42:36;7.35;;;6.15;;
9218;SDS011;4644;48.858;9.184;2023-04-25T11:45:04;8.52;;;6.30;;
9218;SDS011;4644;48.858;9.184;2023-04-25T11:47:34;23.52;;;7.85;;
9218;SDS011;4644;48.858;9.184;2023-04-25T11:50:02;9.95;;;6.13;;
9218;SDS011;4644;48.858;9.184;2023-04-25T11:52:40;7.60;;;6.60;;
9218;SDS011;4644;48.858;9.184;2023-04-25T11:55:08;7.63;;;6.20;;
9218;SDS011;4644;48.858;9.184;2023-04-25T11:57:39;7.32;;;6.45;;
9218;SDS011;4644;48.858;9.184;2023-04-25T12:00:08;6.70;;;5.50;;
9218;SDS011;4644;48.858;9.184;2023-04-25T12:02:41;6.68;;;5.57;;
9218;SDS011;4644;48.858;9.184;2023-04-25T12:05:09;7.30;;;6.60;;
9218;SDS011;4644;48.858;9.184;2023-04-25T12:07:36;6.95;;;6.25;;
9218;SDS011;4644;48.858;9.184;2023-04-25T12:10:04;10.20;;;6.28;;
9218;SDS011;4644;48.858;9.184;2023-04-25T12:12:32;8.10;;;6.07;;
9218;SDS011;4644;48.858;9.184;2023-04-25T12:15:07;7.93;;;6.45;;
9218;SDS011;4644;48.858;9.184;2023-04-25T12:17:36;9.60;;;7.10;;
9218;SDS011;4644;48.858;9.184;2023-04-25T12:20:09;12.40;;;8.47;;
9218;SDS011;4644;48.858;9.184;2023-04-25T12:22:39;9.60;;;8.30;;
9218;SDS011;4644;48.858;9.184;2023-04-25T12:25:09;9.85;;;7.53;;
9218;SDS011;4644;48.858;9.184;2023-04-25T12:27:37;12.00;;;8.20;;
9218;SDS011;4644;48.858;9.184;2023-04-25T12:30:05;9.57;;;8.13;;
9218;SDS011;4644;48.858;9.184;2023-04-25T12:32:33;11.98;;;8.57;;
9218;SDS011;4644;48.858;9.184;2023-04-25T12:35:00;9.18;;;7.57;;
9218;SDS011;4644;48.858;9.184;2023-04-25T12:37:29;12.90;;;8.88;;
9218;SDS011;4644;48.858;9.184;2023-04-25T12:39:56;9.98;;;7.80;;
9218;SDS011;4644;48.858;9.184;2023-04-25T12:42:23;19.63;;;9.50;;
9218;SDS011;4644;48.858;9.184;2023-04-25T12:44:50;10.88;;;7.80;;
9218;SDS011;4644;48.858;9.184;2023-04-25T12:47:17;7.90;;;6.80;;
9218;SDS011;4644;48.858;9.184;2023-04-25T12:49:44;12.93;;;7.80;;
9218;SDS011;4644;48.858;9.184;2023-04-25T12:52:11;8.25;;;6.75;;
9218;SDS011;4644;48.858;9.184;2023-04-25T12:54:39;10.88;;;7.78;;
9218;SDS011;4644;48.858;9.184;2023-04-25T12:57:06;10.38;;;7.20;;
9218;SDS011;4644;48.858;9.184;2023-04-25T12:59:33;9.32;;;6.78;;
9218;SDS011;4644;48.858;9.184;2023-04-25T13:01:59;8.93;;;6.53;;
9218;SDS011;4644;48.858;9.184;2023-04-25T13:04:26;9.00;;;6.75;;
9218;SDS011;4644;48.858;9.184;2023-04-25T13:06:53;7.40;;;6.60;;
9218;SDS011;4644;48.858;9.184;2023-04-25T13:09:20;10.65;;;7.47;;
9218;SDS011;4644;48.858;9.184;2023-04-25T13:11:50;11.02;;;8.25;;
9218;SDS011;4644;48.858;9.184;2023-04-25T13:14:17;10.10;;;8.27;;
9218;SDS011;4644;48.858;9.184;2023-04-25T13:16:44;11.07;;;8.80;;
9218;SDS011;4644;48.858;9.184;2023-04-25T13:19:10;11.15;;;8.43;;
9218;SDS011;4644;48.858;9.184;2023-04-25T13:21:37;11.65;;;8.40;;
9218;SDS011;4644;48.858;9.184;2023-04-25T13:24:04;11.45;;;9.25;;
9218;SDS011;4644;48.858;9.184;2023-04-25T13:26:32;12.50;;;9.85;;
9218;SDS011;4644;48.858;9.184;2023-04-25T13:29:00;11.93;;;9.25;;
9218;SDS011;4644;48.858;9.184;2023-04-25T13:31:28;11.48;;;9.52;;
9218;SDS011;4644;48.858;9.184;2023-04-25T13:33:55;14.10;;;11.93;;
9218;SDS011;4644;48.858;9.184;2023-04-25T13:36:22;14.90;;;11.68;;
9218;SDS011;4644;48.858;9.184;2023-04-25T13:38:50;14.18;;;11.88;;
9218;SDS011;4644;48.858;9.184;2023-04-25T13:41:17;14.82;;;11.35;;
9218;SDS011;4644;48.858;9.184;2023-04-25T13:43:45;14.95;;;10.77;;
9218;SDS011;4644;48.858;9.184;2023-04-25T13:46:14;14.52;;;11.02;;
9218;SDS011;4644;48.858;9.184;2023-04-25T13:48:42;12.10;;;10.32;;
9218;SDS011;4644;48.858;9.184;2023-04-25T13:51:12;13.75;;;10.38;;
9218;SDS011;4644;48.858;9.184;2023-04-25T13:53:40;14.40;;;9.70;;
9218;SDS011;4644;48.858;9.184;2023-04-25T13:56:07;11.65;;;9.13;;
9218;SDS011;4644;48.858;9.184;2023-04-25T13:58:34;11.95;;;9.43;;
9218;SDS011;4644;48.858;9.184;2023-04-25T14:01:01;10.00;;;8.27;;
9218;SDS011;4644;48.858;9.184;2023-04-25T14:03:31;9.32;;;8.20;;
9218;SDS011;4644;48.858;9.184;2023-04-25T14:05:58;9.35;;;8.10;;
9218;SDS011;4644;48.858;9.184;2023-04-25T14:08:25;9.48;;;8.48;;
9218;SDS011;4644;48.858;9.184;2023-04-25T14:10:53;8.85;;;7.95;;
9218;SDS011;4644;48.858;9.184;2023-04-25T14:13:20;9.13;;;7.45;;
9218;SDS011;4644;48.858;9.184;2023-04-25T14:15:48;9.38;;;7.45;;
9218;SDS011;4644;48.858;9.184;2023-04-25T14:18:16;7.80;;;6.80;;
9218;SDS011;4644;48.858;9.184;2023-04-25T14:20:45;7.75;;;6.47;;
9218;SDS011;4644;48.858;9.184;2023-04-25T14:23:12;9.80;;;6.35;;
9218;SDS011;4644;48.858;9.184;2023-04-25T14:25:39;7.18;;;6.45;;
9218;SDS011;4644;48.858;9.184;2023-04-25T14:28:07;7.70;;;6.90;;
9218;SDS011;4644;48.858;9.184;2023-04-25T14:30:34;7.00;;;6.30;;
9218;SDS011;4644;48.858;9.184;2023-04-25T14:33:01;7.53;;;6.75;;
9218;SDS011;4644;48.858;9.184;2023-04-25T14:35:28;9.15;;;6.05;;
9218;SDS011;4644;48.858;9.184;2023-04-25T14:37:56;9.60;;;6.53;;
9218;SDS011;4644;48.858;9.184;2023-04-25T14:40:23;9.43;;;6.70;;
9218;SDS011;4644;48.858;9.184;2023-04-25T14:42:50;9.63;;;6.57;;
9218;SDS011;4644;48.858;9.184;2023-04-25T14:45:17;9.07;;;6.90;;
9218;SDS011;4644;48.858;9.184;2023-04-25T14:47:44;10.20;;;6.95;;
9218;SDS011;4644;48.858;9.184;2023-04-25T14:50:11;9.95;;;7.07;;
9218;SDS011;4644;48.858;9.184;2023-04-25T14:52:38;9.85;;;7.97;;
9218;SDS011;4644;48.858;9.184;2023-04-25T14:55:07;9.27;;;6.77;;
9218;SDS011;4644;48.858;9.184;2023-04-25T14:57:34;11.85;;;7.30;;
9218;SDS011;4644;48.858;9.184;2023-04-25T15:00:02;8.55;;;6.55;;
9218;SDS011;4644;48.858;9.184;2023-04-25T15:02:33;7.35;;;6.00;;
9218;SDS011;4644;48.858;9.184;2023-04-25T15:05:00;8.27;;;6.65;;
9218;SDS011;4644;48.858;9.184;2023-04-25T15:07:28;7.68;;;6.10;;
9218;SDS011;4644;48.858;9.184;2023-04-25T15:09:55;6.82;;;5.78;;
9218;SDS011;4644;48.858;9.184;2023-04-25T15:12:23;7.55;;;5.43;;
9218;SDS011;4644;48.858;9.184;2023-04-25T15:14:53;6.97;;;5.38;;
9218;SDS011;4644;48.858;9.184;2023-04-25T15:17:20;5.90;;;4.95;;